Time;durP1;ratioP1;P1;durP2;ratioP2;P2;SDS_P1;SDS_P2;PMS_P1;PMS_P2;Temp;Humidity;BMP_temperature;BMP_pressure;BME280_temperature;BME280_humidity;BME280_pressure;Samples;Min_cycle;Max_cycle;Signal;HPM_P1;HPM_P2
2023/07/12 02:43:37;;;;;;;9.30;4.50;;;;;;;19.88;62.21;98815.47;106779;1306;544850;-49
2023/07/12 02:46:03;;;;;;;9.10;4.30;;;;;;;19.82;61.86;98814.42;107206;1315;22248;-47
2023/07/12 02:48:28;;;;;;;11.00;4.70;;;;;;;19.80;61.55;98807.55;107184;1315;23309;-54
2023/07/12 02:50:53;;;;;;;11.20;4.30;;;;;;;19.81;61.60;98807.95;107199;1315;22261;-54
2023/07/12 02:53:19;;;;;;;12.40;4.60;;;;;;;19.83;61.31;98806.67;107218;1315;22256;-48
2023/07/12 02:55:51;;;;;;;9.30;4.40;;;;;;;19.84;61.50;98806.27;107183;1315;22336;-53
2023/07/12 02:58:17;;;;;;;7.80;4.90;;;;;;;19.84;61.38;98809.47;107257;1313;146623;-51
2023/07/12 03:00:43;;;;;;;9.40;4.30;;;;;;;19.84;61.15;98809.67;107363;1313;22256;-50
2023/07/12 03:03:09;;;;;;;7.40;4.30;;;;;;;19.86;61.26;98806.41;107366;1313;22287;-47
2023/07/12 03:05:39;;;;;;;6.50;4.20;;;;;;;19.88;61.26;98807.47;107380;1313;22956;-51
2023/07/12 03:08:04;;;;;;;10.40;4.50;;;;;;;19.88;61.22;98808.34;107390;1312;22438;-44
2023/07/12 03:10:30;;;;;;;12.30;4.30;;;;;;;19.89;60.86;98806.21;107423;1312;22235;-49
2023/07/12 03:12:56;;;;;;;10.70;4.50;;;;;;;19.90;61.18;98804.21;107410;1312;22132;-47
2023/07/12 03:15:21;;;;;;;10.40;4.10;;;;;;;19.92;61.33;98802.77;107410;1312;22633;-43
2023/07/12 03:17:46;;;;;;;7.80;4.50;;;;;;;19.92;60.87;98795.62;107413;1297;22410;-55
2023/07/12 03:20:12;;;;;;;9.50;5.00;;;;;;;19.91;61.26;98799.48;107423;1312;22240;-54
2023/07/12 03:22:37;;;;;;;9.10;4.70;;;;;;;19.90;60.95;98795.34;107398;1312;23191;-51
2023/07/12 03:25:03;;;;;;;9.50;4.60;;;;;;;19.92;61.34;98790.69;107404;1312;22406;-52
2023/07/12 03:27:28;;;;;;;7.90;4.50;;;;;;;19.92;61.51;98791.52;107425;1312;22921;-49
2023/07/12 03:29:53;;;;;;;6.50;4.90;;;;;;;19.93;61.14;98781.48;107414;1312;22431;-51
2023/07/12 03:32:19;;;;;;;12.70;5.10;;;;;;;19.94;61.01;98777.82;107434;1312;22825;-50
2023/07/12 03:34:44;;;;;;;9.40;5.00;;;;;;;19.97;60.84;98773.50;107435;1312;22253;-49
2023/07/12 03:37:11;;;;;;;11.90;5.30;;;;;;;20.00;61.05;98772.80;107443;1311;22242;-53
2023/07/12 03:39:37;;;;;;;7.70;5.20;;;;;;;20.02;60.34;98766.83;107450;1311;22328;-51
2023/07/12 03:42:02;;;;;;;9.00;4.70;;;;;;;20.08;59.97;98765.55;107463;1311;22233;-54
2023/07/12 03:44:27;;;;;;;11.10;4.40;;;;;;;20.14;59.59;98769.58;107469;1301;22284;-53
2023/07/12 03:46:53;;;;;;;12.30;4.70;;;;;;;20.19;58.89;98773.33;107470;1311;22307;-46
2023/07/12 03:49:18;;;;;;;10.40;4.30;;;;;;;20.21;57.96;98768.26;107448;1311;23126;-51
2023/07/12 03:51:43;;;;;;;7.40;4.40;;;;;;;20.27;58.01;98765.39;107468;1311;24222;-49
2023/07/12 03:54:09;;;;;;;6.20;4.50;;;;;;;20.33;57.80;98760.45;107447;1311;22299;-51
2023/07/12 03:56:34;;;;;;;14.90;5.70;;;;;;;20.37;57.38;98754.35;107461;1311;22238;-50
2023/07/12 03:58:59;;;;;;;8.00;4.00;;;;;;;20.41;56.98;98750.79;107439;1311;22948;-54
2023/07/12 04:01:25;;;;;;;6.60;4.30;;;;;;;20.46;56.46;98759.16;107415;1311;22292;-48
2023/07/12 04:03:50;;;;;;;10.00;4.70;;;;;;;20.49;56.43;98761.27;107440;1311;22242;-45
2023/07/12 04:06:15;;;;;;;10.80;4.10;;;;;;;20.51;55.82;98758.38;107454;1311;22175;-54
2023/07/12 04:08:42;;;;;;;10.20;4.50;;;;;;;20.55;55.26;98757.66;107444;1311;23141;-52
2023/07/12 04:11:10;;;;;;;13.20;5.00;;;;;;;20.57;54.69;98759.09;107436;1311;22437;-52
2023/07/12 04:13:35;;;;;;;8.50;5.00;;;;;;;20.59;55.14;98759.51;107440;1311;22221;-53
2023/07/12 04:16:02;;;;;;;11.80;4.60;;;;;;;20.62;54.93;98753.20;107459;1311;22405;-53
2023/07/12 04:18:28;;;;;;;11.60;5.10;;;;;;;20.63;54.56;98754.19;107464;1311;22371;-47
2023/07/12 04:20:54;;;;;;;12.30;4.60;;;;;;;20.63;54.33;98756.80;107446;1311;22259;-43
2023/07/12 04:23:20;;;;;;;11.50;4.50;;;;;;;20.65;54.75;98755.84;107279;1311;22985;-57
2023/07/12 04:25:45;;;;;;;10.70;4.70;;;;;;;20.66;54.22;98753.61;107500;1311;22392;-46
2023/07/12 04:28:11;;;;;;;7.80;4.40;;;;;;;20.68;54.14;98750.41;107481;1311;22213;-52
2023/07/12 04:30:36;;;;;;;7.60;4.90;;;;;;;20.69;53.95;98742.61;107510;1311;22355;-52
2023/07/12 04:33:04;;;;;;;14.50;4.80;;;;;;;20.73;53.69;98738.53;107494;1311;23201;-50
2023/07/12 04:35:29;;;;;;;;;;;;;;;20.75;53.43;98737.07;107508;1311;22436;-46
2023/07/12 04:37:54;;;;;;;10.40;3.90;;;;;;;20.76;52.84;98736.60;107497;1311;22243;-45
2023/07/12 04:40:20;;;;;;;7.60;4.30;;;;;;;20.80;53.21;98737.75;107487;1311;23097;-44
2023/07/12 04:42:45;;;;;;;9.40;4.70;;;;;;;20.83;52.66;98737.79;107505;1311;22265;-47
2023/07/12 04:45:13;;;;;;;13.10;5.00;;;;;;;20.87;52.72;98733.64;107501;1311;22412;-45
2023/07/12 04:47:39;;;;;;;7.20;4.20;;;;;;;20.91;52.71;98730.48;107504;1291;22214;-46
2023/07/12 04:50:05;;;;;;;11.60;4.20;;;;;;;20.95;52.65;98730.23;107496;1311;22201;-50
2023/07/12 04:52:31;;;;;;;17.30;4.60;;;;;;;20.99;52.85;98726.67;107503;1311;22258;-51
2023/07/12 04:55:00;;;;;;;8.30;4.40;;;;;;;21.01;52.59;98722.81;107493;1311;22234;-55
2023/07/12 04:57:25;;;;;;;13.20;4.40;;;;;;;21.06;52.25;98721.17;107509;1311;22212;-51
2023/07/12 04:59:51;;;;;;;9.70;4.20;;;;;;;21.14;52.01;98715.01;107482;1311;22397;-51
2023/07/12 05:02:16;;;;;;;8.80;3.90;;;;;;;21.19;51.67;98711.09;107507;1311;22884;-43
2023/07/12 05:04:43;;;;;;;8.00;4.40;;;;;;;21.27;51.77;98703.64;107502;1311;22267;-48
2023/07/12 05:07:09;;;;;;;8.80;4.20;;;;;;;21.36;51.85;98704.77;107498;1311;22219;-52
2023/07/12 05:09:35;;;;;;;9.50;4.00;;;;;;;21.48;51.45;98703.16;107489;1311;22371;-45
2023/07/12 05:12:01;;;;;;;24.70;4.70;;;;;;;21.55;50.84;98696.32;107507;1310;22225;-48
2023/07/12 05:14:26;;;;;;;13.60;4.70;;;;;;;21.63;50.71;98690.83;107504;1311;22465;-51
2023/07/12 05:16:51;;;;;;;10.70;4.20;;;;;;;21.70;50.48;98692.52;107488;1310;22209;-51
2023/07/12 05:19:17;;;;;;;10.10;3.80;;;;;;;21.77;50.39;98694.20;107425;1311;22299;-55
2023/07/12 05:21:43;;;;;;;8.00;4.20;;;;;;;21.84;50.07;98699.73;107524;1311;22249;-51
2023/07/12 05:24:09;;;;;;;9.60;3.60;;;;;;;21.90;50.05;98706.98;107522;1311;22425;-45
2023/07/12 05:26:34;;;;;;;6.40;3.70;;;;;;;21.96;49.78;98715.66;107494;1311;22518;-52
2023/07/12 05:29:00;;;;;;;8.80;4.00;;;;;;;22.01;49.29;98718.92;107482;1311;22373;-47
2023/07/12 05:31:26;;;;;;;11.90;4.10;;;;;;;22.08;49.63;98716.61;107508;1311;22887;-54
2023/07/12 05:33:51;;;;;;;15.40;3.80;;;;;;;22.16;49.73;98713.82;107527;1311;22440;-48
2023/07/12 05:36:17;;;;;;;149.00;12.40;;;;;;;22.27;49.40;98718.16;107520;1311;22227;-46
2023/07/12 05:38:42;;;;;;;15.40;5.10;;;;;;;22.38;49.45;98720.08;107502;1311;22248;-49
2023/07/12 05:41:07;;;;;;;18.70;4.10;;;;;;;22.48;49.07;98727.73;107513;1311;22409;-55
2023/07/12 05:43:34;;;;;;;12.90;4.40;;;;;;;22.57;49.22;98729.50;107487;1311;24662;-49
2023/07/12 05:46:00;;;;;;;9.40;4.00;;;;;;;22.67;49.50;98729.35;107509;1311;22258;-53
2023/07/12 05:48:26;;;;;;;7.50;3.80;;;;;;;22.76;48.58;98724.14;107518;1311;23760;-56
2023/07/12 05:50:53;;;;;;;6.40;3.50;;;;;;;22.86;48.51;98725.21;107498;1311;22219;-51
2023/07/12 05:53:19;;;;;;;9.80;3.60;;;;;;;22.95;47.87;98725.48;107491;1311;22264;-54
2023/07/12 05:55:44;;;;;;;7.90;3.90;;;;;;;23.06;47.42;98727.64;107491;1311;22207;-48
2023/07/12 05:58:10;;;;;;;12.10;3.90;;;;;;;23.20;47.53;98718.06;107510;1311;23015;-57
2023/07/12 06:00:35;;;;;;;12.20;3.90;;;;;;;23.30;47.04;98714.02;107518;1311;22237;-55
2023/07/12 06:03:01;;;;;;;7.50;3.40;;;;;;;23.39;46.22;98705.83;107512;1311;22945;-52
2023/07/12 06:05:26;;;;;;;16.00;4.60;;;;;;;23.49;46.61;98705.34;107497;1311;22942;-48
2023/07/12 06:07:51;;;;;;;10.60;4.80;;;;;;;23.56;45.61;98702.50;107504;1311;22907;-49
2023/07/12 06:10:17;;;;;;;13.10;4.30;;;;;;;23.65;45.75;98699.84;107511;1311;22224;-54
2023/07/12 06:12:43;;;;;;;4.70;3.80;;;;;;;23.74;45.41;98697.45;107512;1311;23233;-50
2023/07/12 06:15:09;;;;;;;7.50;3.60;;;;;;;23.82;45.36;98697.48;107466;1304;23125;-47
2023/07/12 06:17:34;;;;;;;10.80;4.10;;;;;;;23.89;44.87;98699.82;107494;1305;22474;-53
2023/07/12 06:20:00;;;;;;;11.50;3.90;;;;;;;23.95;44.53;98696.64;107439;1311;22238;-51
2023/07/12 06:22:25;;;;;;;5.60;3.90;;;;;;;24.00;44.39;98698.89;107503;1311;22430;-53
2023/07/12 06:24:51;;;;;;;12.30;3.80;;;;;;;24.06;44.25;98699.17;107510;1311;22250;-51
2023/07/12 06:27:16;;;;;;;10.90;3.50;;;;;;;24.13;44.21;98696.05;107511;1311;22639;-47
2023/07/12 06:29:42;;;;;;;53.50;7.40;;;;;;;24.21;44.40;98691.39;107507;1311;23012;-50
2023/07/12 06:32:11;;;;;;;14.00;4.70;;;;;;;24.27;44.10;98693.09;107497;1311;22435;-52
2023/07/12 06:34:37;;;;;;;6.20;3.80;;;;;;;24.33;44.13;98692.73;107526;1311;22300;-49
2023/07/12 06:37:03;;;;;;;8.20;3.60;;;;;;;24.39;44.10;98684.87;107509;1311;23135;-49
2023/07/12 06:39:28;;;;;;;9.60;4.40;;;;;;;24.46;43.97;98680.98;107523;1311;22441;-52
2023/07/12 06:41:53;;;;;;;11.40;4.10;;;;;;;24.48;43.74;98676.04;107514;1305;22287;-55
2023/07/12 06:44:19;;;;;;;11.60;3.90;;;;;;;24.52;44.07;98669.25;107510;1311;22378;-51
2023/07/12 06:46:44;;;;;;;9.60;3.90;;;;;;;24.56;43.71;98663.98;107515;1311;22264;-50
2023/07/12 06:49:10;;;;;;;8.90;3.40;;;;;;;24.64;43.65;98658.34;107524;1311;22115;-53
2023/07/12 06:51:36;;;;;;;9.60;3.80;;;;;;;24.68;43.51;98654.01;107521;1305;22411;-46
2023/07/12 06:54:01;;;;;;;7.20;3.70;;;;;;;24.74;43.44;98649.63;107495;1308;22287;-56
2023/07/12 06:56:27;;;;;;;5.30;3.10;;;;;;;24.78;43.15;98651.34;107515;1311;22386;-53
2023/07/12 06:58:52;;;;;;;5.60;3.20;;;;;;;24.84;42.96;98644.25;107488;1311;22228;-52
2023/07/12 07:01:17;;;;;;;16.90;4.10;;;;;;;24.88;43.21;98641.36;107484;1311;23158;-52
2023/07/12 07:03:43;;;;;;;9.10;3.80;;;;;;;24.93;43.45;98637.48;107462;1304;22277;-44
2023/07/12 07:06:08;;;;;;;9.20;3.80;;;;;;;25.00;43.67;98633.20;107461;1311;24114;-58
2023/07/12 07:08:34;;;;;;;10.40;4.00;;;;;;;25.06;43.14;98627.66;107500;1311;22239;-46
2023/07/12 07:11:00;;;;;;;8.50;3.40;;;;;;;25.08;42.73;98619.36;107518;1307;22262;-52
2023/07/12 07:13:26;;;;;;;10.90;4.10;;;;;;;25.14;42.90;98613.87;107311;1311;22210;-50
2023/07/12 07:15:52;;;;;;;13.70;3.70;;;;;;;25.21;42.62;98609.16;107517;1311;22271;-52
2023/07/12 07:18:18;;;;;;;5.30;3.60;;;;;;;25.26;42.76;98600.31;107505;1311;22240;-43
2023/07/12 07:20:44;;;;;;;9.20;3.90;;;;;;;25.35;42.70;98594.38;107527;1301;22234;-50
2023/07/12 07:23:10;;;;;;;8.50;4.00;;;;;;;25.40;42.48;98588.90;107517;1311;22507;-56
2023/07/12 07:25:36;;;;;;;11.20;3.30;;;;;;;25.48;42.52;98588.45;107522;1305;22962;-50
2023/07/12 07:28:02;;;;;;;9.90;3.60;;;;;;;25.56;43.14;98581.79;107518;1311;23095;-47
2023/07/12 07:30:27;;;;;;;9.70;3.50;;;;;;;25.64;43.29;98578.02;107531;1311;22495;-53
2023/07/12 07:32:54;;;;;;;7.50;3.70;;;;;;;25.69;42.35;98572.98;107522;1311;22429;-50
2023/07/12 07:35:20;;;;;;;11.20;4.10;;;;;;;25.70;42.44;98574.36;107527;1311;22089;-52
2023/07/12 07:37:47;;;;;;;10.20;3.70;;;;;;;25.75;42.16;98576.34;107493;1311;22379;-54
2023/07/12 07:40:13;;;;;;;10.50;3.70;;;;;;;25.82;42.09;98580.05;107512;1304;22237;-52
2023/07/12 07:42:38;;;;;;;5.90;3.40;;;;;;;25.89;41.78;98588.16;107496;1311;23150;-52
2023/07/12 07:45:04;;;;;;;4.60;3.40;;;;;;;25.93;41.90;98592.14;107519;1307;22231;-52
2023/07/12 07:47:29;;;;;;;9.60;3.90;;;;;;;26.01;41.83;98595.16;107518;1311;22328;-56
2023/07/12 07:49:54;;;;;;;11.50;3.20;;;;;;;26.07;41.39;98592.03;107502;1311;22249;-46
2023/07/12 07:52:20;;;;;;;7.80;3.80;;;;;;;26.11;41.28;98588.90;107535;1290;22252;-53
2023/07/12 07:54:45;;;;;;;6.20;3.60;;;;;;;26.17;41.03;98582.16;107483;1311;23297;-51
2023/07/12 07:57:10;;;;;;;5.10;3.70;;;;;;;26.30;41.64;98576.89;107497;1311;22900;-48
2023/07/12 07:59:36;;;;;;;6.10;3.40;;;;;;;26.41;41.06;98579.90;107544;1311;22374;-49
2023/07/12 08:02:01;;;;;;;10.50;3.80;;;;;;;26.42;40.93;98586.33;107267;1310;22241;-55
2023/07/12 08:04:27;;;;;;;6.90;3.30;;;;;;;26.43;40.43;98589.06;107651;1310;22419;-51
2023/07/12 08:06:52;;;;;;;8.20;3.50;;;;;;;26.43;40.46;98585.16;107658;1310;22987;-57
2023/07/12 08:09:17;;;;;;;10.10;3.80;;;;;;;26.44;40.14;98580.36;107647;1304;22266;-55
2023/07/12 08:11:43;;;;;;;6.60;3.30;;;;;;;26.53;40.64;98571.54;107645;1295;22349;-61
2023/07/12 08:14:08;;;;;;;15.20;4.10;;;;;;;26.63;40.75;98571.16;107642;1310;23108;-63
2023/07/12 08:16:36;;;;;;;7.90;3.40;;;;;;;26.71;40.03;98570.84;107634;1310;22979;-60
2023/07/12 08:19:04;;;;;;;;;;;;;;;26.81;40.13;98563.98;107630;1310;22443;-51
2023/07/12 08:21:30;;;;;;;7.40;3.40;;;;;;;26.93;40.07;98564.85;107649;1310;22218;-50
2023/07/12 08:23:55;;;;;;;19.00;4.00;;;;;;;27.04;40.15;98559.75;107630;1310;22241;-55
2023/07/12 08:26:21;;;;;;;6.00;3.60;;;;;;;27.14;39.33;98561.55;107650;1310;22224;-50
2023/07/12 08:28:47;;;;;;;6.70;3.10;;;;;;;27.30;39.43;98560.73;107646;1310;23084;-54
2023/07/12 08:31:13;;;;;;;15.90;4.10;;;;;;;27.41;38.45;98552.31;107622;1310;23093;-50
2023/07/12 08:33:38;;;;;;;4.60;3.70;;;;;;;27.54;38.34;98546.68;107629;1302;23057;-50
2023/07/12 08:36:04;;;;;;;6.90;3.40;;;;;;;27.70;38.59;98543.16;107651;1304;22215;-52
2023/07/12 08:38:31;;;;;;;7.20;4.10;;;;;;;27.89;38.26;98536.57;107669;1303;22230;-46
2023/07/12 08:40:58;;;;;;;12.40;8.60;;;;;;;28.07;37.69;98528.25;107656;1310;22239;-52
2023/07/12 08:43:31;;;;;;;;;;;;;;;28.26;37.64;98523.98;107678;1310;22502;-54
2023/07/12 08:46:08;;;;;;;5.50;3.60;;;;;;;28.45;36.84;98522.36;107582;1307;22274;-49
2023/07/12 08:48:34;;;;;;;8.50;3.30;;;;;;;28.64;36.35;98518.41;107658;1303;22245;-52
2023/07/12 08:51:00;;;;;;;9.30;3.60;;;;;;;28.82;36.18;98518.17;107632;1303;22307;-51
2023/07/12 08:53:29;;;;;;;13.80;3.90;;;;;;;28.89;35.96;98518.33;107640;1304;22210;-50
2023/07/12 08:55:56;;;;;;;7.90;3.60;;;;;;;28.90;35.76;98512.90;107564;1304;22342;-52
2023/07/12 08:58:24;;;;;;;10.40;4.00;;;;;;;28.93;35.72;98516.20;107605;1305;22959;-54
2023/07/12 09:01:05;;;;;;;9.70;4.10;;;;;;;28.97;35.60;98518.59;107657;1304;22810;-54
2023/07/12 09:03:31;;;;;;;15.70;4.30;;;;;;;29.00;35.39;98519.73;107643;1299;22520;-56
2023/07/12 09:05:57;;;;;;;6.40;3.60;;;;;;;29.13;35.58;98519.89;107616;1309;22991;-55
2023/07/12 09:08:39;;;;;;;10.70;3.80;;;;;;;29.28;35.51;98519.70;107639;1310;22269;-54
2023/07/12 09:11:13;;;;;;;5.60;3.40;;;;;;;29.47;35.22;98519.78;107640;1310;22225;-57
2023/07/12 09:13:39;;;;;;;8.70;3.60;;;;;;;29.69;34.83;98516.95;107640;1304;22365;-52
2023/07/12 09:16:23;;;;;;;5.80;3.80;;;;;;;29.81;34.55;98512.60;107634;1310;21816;-50
2023/07/12 09:18:52;;;;;;;9.40;4.00;;;;;;;29.93;34.57;98510.06;107599;1310;22249;-52
2023/07/12 09:21:23;;;;;;;5.90;3.70;;;;;;;30.04;34.11;98514.09;107655;1310;22416;-53
2023/07/12 09:23:51;;;;;;;10.50;3.60;;;;;;;30.24;34.46;98511.95;107648;1310;22245;-53
2023/07/12 09:26:26;;;;;;;5.90;3.70;;;;;;;30.36;34.26;98508.22;107677;1310;22209;-50
2023/07/12 09:29:18;;;;;;;10.80;3.90;;;;;;;30.42;33.70;98506.38;107662;1310;22230;-56
2023/07/12 09:31:45;;;;;;;7.10;4.20;;;;;;;30.51;33.46;98501.60;107654;1310;22881;-55
2023/07/12 09:34:23;;;;;;;3.80;3.30;;;;;;;30.68;34.17;98493.69;107653;1310;22297;-49
2023/07/12 09:36:58;;;;;;;7.70;3.70;;;;;;;30.83;34.06;98483.73;107670;1310;23597;-50
2023/07/12 09:39:25;;;;;;;4.80;3.50;;;;;;;30.93;33.76;98473.68;107643;1310;23124;-56
2023/07/12 09:41:55;;;;;;;14.60;4.60;;;;;;;31.05;34.07;98468.80;107653;1310;22267;-54
2023/07/12 09:44:20;;;;;;;7.80;4.20;;;;;;;31.23;33.76;98461.58;107645;1310;22246;-52
2023/07/12 09:46:53;;;;;;;6.80;3.50;;;;;;;31.49;33.96;98455.55;107657;1305;23124;-53
2023/07/12 09:49:23;;;;;;;8.60;3.60;;;;;;;31.75;33.29;98451.97;107653;1307;22405;-48
2023/07/12 09:52:13;;;;;;;6.30;4.50;;;;;;;31.89;32.99;98447.73;107659;1302;22451;-49
2023/07/12 09:54:42;;;;;;;5.30;4.50;;;;;;;32.01;33.15;98445.27;107635;1310;22194;-51
2023/07/12 09:57:16;;;;;;;6.40;4.30;;;;;;;32.15;32.63;98441.91;107667;1305;22216;-52
2023/07/12 10:00:03;;;;;;;13.30;5.10;;;;;;;32.17;31.93;98444.66;107648;1303;22295;-51
2023/07/12 10:02:37;;;;;;;7.80;4.60;;;;;;;32.36;32.43;98452.86;107660;1307;22884;-49
2023/07/12 10:05:22;;;;;;;11.50;4.30;;;;;;;32.53;32.45;98462.43;107659;1304;22289;-48
2023/07/12 10:08:06;;;;;;;7.10;4.60;;;;;;;32.53;32.41;98476.70;107655;1310;23537;-52
2023/07/12 10:10:43;;;;;;;7.90;4.30;;;;;;;32.48;32.27;98487.44;107673;1310;22344;-52
2023/07/12 10:13:17;;;;;;;8.70;4.80;;;;;;;32.44;32.50;98489.18;107618;1310;22233;-48
2023/07/12 10:15:45;;;;;;;6.40;4.50;;;;;;;32.45;32.12;98491.54;107652;1302;22358;-49
2023/07/12 10:18:17;;;;;;;12.60;4.60;;;;;;;32.33;32.38;98493.63;107660;1305;22466;-46
2023/07/12 10:20:43;;;;;;;12.10;4.90;;;;;;;32.09;32.55;98486.01;107628;1310;23223;-49
2023/07/12 10:23:11;;;;;;;7.30;4.50;;;;;;;31.80;33.23;98489.91;107651;1310;22219;-48
2023/07/12 10:25:38;;;;;;;8.00;5.20;;;;;;;31.62;33.67;98496.37;107665;1310;23178;-50
2023/07/12 10:28:03;;;;;;;;;;;;;;;31.42;33.66;98500.60;107579;1310;22417;-48
2023/07/12 10:30:30;;;;;;;12.20;5.00;;;;;;;31.15;33.95;98500.45;107658;1310;23163;-45
2023/07/12 10:33:22;;;;;;;11.20;5.20;;;;;;;30.97;34.52;98503.31;107670;1304;22325;-51
2023/07/12 10:36:01;;;;;;;5.70;4.90;;;;;;;30.79;34.99;98511.07;107646;1304;22366;-48
2023/07/12 10:38:27;;;;;;;8.10;5.20;;;;;;;30.62;35.14;98514.36;107689;1310;22459;-46
2023/07/12 10:40:59;;;;;;;7.10;5.20;;;;;;;30.45;35.68;98515.14;107224;1310;23060;-45
2023/07/12 10:43:37;;;;;;;8.80;4.90;;;;;;;30.20;36.33;98518.31;107660;1310;22289;-50
2023/07/12 10:46:13;;;;;;;11.80;5.10;;;;;;;29.89;36.83;98518.84;107555;1304;22314;-47
2023/07/12 10:48:47;;;;;;;14.10;5.50;;;;;;;29.72;37.24;98523.08;107666;1310;22288;-49
2023/07/12 10:51:58;;;;;;;10.50;5.60;;;;;;;29.53;37.78;98520.77;107633;1310;22362;-45
2023/07/12 10:54:29;;;;;;;8.20;5.70;;;;;;;29.34;38.52;98514.27;107565;1310;22316;-47
2023/07/12 10:57:01;;;;;;;13.00;5.60;;;;;;;29.15;38.98;98509.89;107630;1310;22228;-50
2023/07/12 10:59:30;;;;;;;7.90;5.20;;;;;;;28.92;39.42;98504.64;107634;1310;22796;-46
2023/07/12 11:02:09;;;;;;;10.60;5.30;;;;;;;28.80;39.77;98501.83;107537;1310;22222;-47
2023/07/12 11:04:45;;;;;;;10.80;5.20;;;;;;;28.67;40.05;98508.90;107662;1289;22294;-47
2023/07/12 11:07:10;;;;;;;15.50;6.00;;;;;;;28.54;40.24;98508.08;107641;1310;22590;-46
2023/07/12 11:09:47;;;;;;;8.70;5.20;;;;;;;28.43;40.85;98508.02;107648;1303;22267;-50
2023/07/12 11:12:33;;;;;;;7.20;5.40;;;;;;;28.34;41.03;98515.45;107590;1310;23098;-45
2023/07/12 11:15:27;;;;;;;10.90;5.50;;;;;;;28.21;41.66;98513.82;107596;1308;22458;-46
2023/07/12 11:18:03;;;;;;;11.70;6.00;;;;;;;28.10;41.93;98512.15;107605;1307;22335;-46
2023/07/12 11:20:35;;;;;;;9.20;5.90;;;;;;;27.98;42.20;98512.77;107603;1310;22318;-46
2023/07/12 11:23:07;;;;;;;9.10;5.80;;;;;;;27.85;42.87;98517.47;107632;1310;22769;-48
2023/07/12 11:25:44;;;;;;;12.10;5.90;;;;;;;27.77;42.85;98523.31;107623;1302;22233;-50
2023/07/12 11:28:22;;;;;;;14.70;6.10;;;;;;;27.68;43.22;98526.56;107652;1310;22282;-50
2023/07/12 11:31:14;;;;;;;15.90;6.10;;;;;;;27.60;43.86;98523.09;107592;1310;22269;-47
2023/07/12 11:33:45;;;;;;;11.30;6.20;;;;;;;27.56;43.72;98517.13;107646;1310;23094;-51
2023/07/12 11:36:20;;;;;;;9.50;5.80;;;;;;;27.48;44.68;98506.80;107611;1310;22897;-46
2023/07/12 11:38:49;;;;;;;8.90;5.60;;;;;;;27.46;44.75;98498.89;107628;1310;22464;-49
2023/07/12 11:41:21;;;;;;;10.50;6.00;;;;;;;27.50;45.00;98496.80;107650;1302;22415;-46
2023/07/12 11:43:47;;;;;;;11.60;6.10;;;;;;;27.55;44.90;98495.73;107650;1302;22233;-48
2023/07/12 11:46:14;;;;;;;11.60;5.90;;;;;;;27.60;44.61;98495.02;107636;1302;22323;-51
2023/07/12 11:48:43;;;;;;;11.30;5.80;;;;;;;27.61;44.85;98492.39;107639;1310;22242;-44
2023/07/12 11:51:18;;;;;;;10.70;6.00;;;;;;;27.66;45.01;98495.19;107619;1310;22401;-53
2023/07/12 11:54:00;;;;;;;16.30;6.50;;;;;;;27.67;45.06;98494.56;107631;1310;22458;-56
2023/07/12 11:56:25;;;;;;;10.90;5.90;;;;;;;27.73;45.24;98494.70;107652;1288;22481;-51
2023/07/12 11:58:51;;;;;;;11.40;5.80;;;;;;;27.75;45.22;98496.06;107652;1310;22219;-52
2023/07/12 12:01:19;;;;;;;8.10;5.50;;;;;;;27.78;45.15;98487.23;107642;1302;22208;-47
2023/07/12 12:03:48;;;;;;;10.10;6.00;;;;;;;27.90;45.05;98484.15;107602;1304;22478;-47
2023/07/12 12:06:14;;;;;;;11.10;5.60;;;;;;;28.03;45.07;98484.39;107647;1310;22217;-51
2023/07/12 12:08:47;;;;;;;14.50;5.90;;;;;;;28.12;44.86;98487.08;107655;1310;22240;-50
2023/07/12 12:11:12;;;;;;;11.90;6.20;;;;;;;28.12;44.93;98491.14;107666;1310;22983;-43
2023/07/12 12:13:46;;;;;;;12.80;5.80;;;;;;;28.11;44.87;98486.25;107636;1304;23147;-46
2023/07/12 12:16:19;;;;;;;10.60;5.50;;;;;;;28.12;44.79;98491.36;107639;1310;22352;-46
2023/07/12 12:18:58;;;;;;;10.90;5.80;;;;;;;28.10;44.84;98490.87;107641;1310;22272;-51
2023/07/12 12:21:25;;;;;;;14.70;6.00;;;;;;;28.01;45.16;98491.00;107650;1310;23101;-48
2023/07/12 12:23:52;;;;;;;11.00;5.30;;;;;;;28.04;45.12;98493.27;107645;1304;22343;-51
2023/07/12 12:26:28;;;;;;;10.10;5.80;;;;;;;28.06;45.15;98484.70;107649;1310;22980;-48
2023/07/12 12:28:59;;;;;;;17.80;6.20;;;;;;;28.14;45.09;98487.14;107644;1310;22252;-47
2023/07/12 12:31:28;;;;;;;9.20;6.20;;;;;;;28.29;44.85;98485.70;107650;1292;22258;-49
2023/07/12 12:34:05;;;;;;;13.30;6.20;;;;;;;28.46;44.87;98482.90;107628;1310;22638;-45
2023/07/12 12:36:33;;;;;;;16.50;6.10;;;;;;;28.56;44.50;98488.92;107638;1310;22465;-51
2023/07/12 12:39:21;;;;;;;15.90;6.40;;;;;;;28.60;44.64;98490.11;107588;1310;22464;-47
2023/07/12 12:41:55;;;;;;;17.80;6.50;;;;;;;28.64;44.57;98482.20;107666;1310;22306;-48
2023/07/12 12:44:26;;;;;;;15.40;6.80;;;;;;;28.68;44.80;98477.17;107602;1310;22439;-46
2023/07/12 12:47:00;;;;;;;13.20;6.20;;;;;;;28.70;44.67;98480.52;107677;1304;22929;-51
2023/07/12 12:49:30;;;;;;;10.60;5.60;;;;;;;28.68;44.72;98478.17;107671;1310;23419;-45
2023/07/12 12:51:59;;;;;;;9.20;6.00;;;;;;;28.66;44.84;98482.02;107590;1302;22240;-47
2023/07/12 12:54:24;;;;;;;10.00;5.90;;;;;;;28.66;44.90;98488.73;107643;1305;22221;-47
2023/07/12 12:56:51;;;;;;;13.30;6.30;;;;;;;28.72;44.76;98487.72;107640;1310;22196;-52
2023/07/12 12:59:18;;;;;;;16.00;5.90;;;;;;;28.70;44.97;98490.23;107633;1310;22243;-50
2023/07/12 13:01:44;;;;;;;12.70;6.60;;;;;;;28.73;45.24;98490.83;107634;1302;22218;-49
2023/07/12 13:04:12;;;;;;;12.10;6.10;;;;;;;28.67;45.37;98490.75;107666;1310;22237;-46
2023/07/12 13:06:37;;;;;;;10.60;5.70;;;;;;;28.74;45.17;98483.16;107632;1307;22909;-46
2023/07/12 13:09:11;;;;;;;11.00;6.20;;;;;;;28.80;45.32;98482.02;107658;1310;22986;-45
2023/07/12 13:11:37;;;;;;;10.50;6.50;;;;;;;28.91;45.69;98486.20;107663;1310;23044;-47
2023/07/12 13:14:02;;;;;;;16.80;6.60;;;;;;;28.93;45.44;98487.52;107641;1310;22226;-46
2023/07/12 13:16:27;;;;;;;12.40;6.50;;;;;;;28.76;45.48;98480.44;107649;1310;22340;-53
2023/07/12 13:18:52;;;;;;;10.10;5.70;;;;;;;28.73;45.59;98483.80;107629;1310;23208;-47
2023/07/12 13:21:21;;;;;;;9.20;6.20;;;;;;;28.56;45.85;98482.02;107674;1288;22299;-50
2023/07/12 13:23:47;;;;;;;9.50;6.20;;;;;;;28.48;46.39;98486.94;107635;1310;22320;-48
2023/07/12 13:26:19;;;;;;;16.30;6.60;;;;;;;28.46;46.27;98490.58;107676;1310;22405;-49
2023/07/12 13:28:45;;;;;;;15.90;7.40;;;;;;;28.43;46.67;98486.09;107655;1310;22277;-47
2023/07/12 13:31:12;;;;;;;13.60;7.10;;;;;;;28.37;47.33;98484.98;107678;1310;22551;-48
2023/07/12 13:33:37;;;;;;;11.40;6.40;;;;;;;28.33;47.65;98486.42;107640;1310;22359;-50
2023/07/12 13:36:03;;;;;;;12.60;6.50;;;;;;;28.35;47.47;98492.64;107637;1310;22260;-48
2023/07/12 13:38:29;;;;;;;9.60;6.10;;;;;;;28.35;47.44;98502.34;107667;1310;23022;-47
2023/07/12 13:40:54;;;;;;;8.90;5.10;;;;;;;28.37;47.15;98505.58;107637;1310;22103;-45
2023/07/12 13:43:20;;;;;;;14.10;4.60;;;;;;;28.33;46.45;98514.17;107651;1310;22255;-45
2023/07/12 13:45:46;;;;;;;10.10;5.00;;;;;;;28.28;45.91;98509.72;107624;1310;22252;-44
2023/07/12 13:48:14;;;;;;;6.90;4.00;;;;;;;28.15;45.68;98512.75;107673;1303;22234;-48
2023/07/12 13:50:39;;;;;;;10.10;5.10;;;;;;;28.00;46.11;98514.84;107648;1310;22316;-49
2023/07/12 13:53:07;;;;;;;8.50;4.40;;;;;;;28.03;45.85;98517.19;107638;1310;22910;-50
2023/07/12 13:55:33;;;;;;;5.40;4.40;;;;;;;28.02;46.04;98524.73;107635;1310;22683;-46
2023/07/12 13:57:58;;;;;;;4.80;3.60;;;;;;;28.01;44.99;98530.20;107664;1310;22249;-51
2023/07/12 14:00:23;;;;;;;5.40;3.90;;;;;;;28.02;44.70;98527.59;107655;1310;22278;-47
2023/07/12 14:02:50;;;;;;;4.30;3.80;;;;;;;28.04;44.82;98536.85;107522;1302;22283;-50
2023/07/12 14:05:16;;;;;;;11.70;4.20;;;;;;;28.19;44.87;98544.45;107631;1302;22255;-47
2023/07/12 14:07:42;;;;;;;9.30;3.40;;;;;;;28.47;44.79;98540.99;107693;1310;22227;-48
2023/07/12 14:10:20;;;;;;;4.60;3.90;;;;;;;28.76;44.10;98533.55;107704;1310;22415;-51